createdAt,value
2023-03-31T00:00:17.034Z,98.0
2023-03-31T00:01:16.596Z,98.1
2023-03-31T00:02:17.550Z,98.1
2023-03-31T00:03:17.354Z,98.1
2023-03-31T00:04:17.259Z,98.2
2023-03-31T00:05:16.970Z,98.2
2023-03-31T00:06:16.558Z,98.2
2023-03-31T00:07:17.109Z,98.2
2023-03-31T00:08:16.694Z,98.2
2023-03-31T00:09:17.260Z,98.2
2023-03-31T00:10:18.936Z,98.2
2023-03-31T00:11:17.487Z,98.2
2023-03-31T00:12:17.091Z,98.2
2023-03-31T00:13:16.669Z,98.2
2023-03-31T00:14:17.220Z,98.4
2023-03-31T00:15:16.799Z,98.5
2023-03-31T00:16:17.495Z,98.5
2023-03-31T00:17:17.109Z,98.4
2023-03-31T00:18:16.708Z,98.4
2023-03-31T00:19:17.724Z,98.4
2023-03-31T00:20:17.326Z,98.5
2023-03-31T00:21:16.892Z,98.4
2023-03-31T00:22:16.794Z,98.4
2023-03-31T00:23:17.367Z,98.4
2023-03-31T00:24:16.951Z,98.4
2023-03-31T00:25:17.491Z,98.3
2023-03-31T00:26:17.064Z,98.3
2023-03-31T00:27:16.622Z,98.3
2023-03-31T00:28:17.165Z,98.3
2023-03-31T00:29:16.751Z,98.3
2023-03-31T00:30:17.313Z,98.3
2023-03-31T00:31:16.928Z,98.4
2023-03-31T00:32:16.921Z,98.3
2023-03-31T00:33:17.495Z,98.3
2023-03-31T00:34:17.050Z,98.4
2023-03-31T00:35:16.601Z,98.3
2023-03-31T00:36:17.298Z,98.4
2023-03-31T00:37:16.890Z,98.7
2023-03-31T00:38:17.487Z,98.9
2023-03-31T00:39:17.023Z,98.9
2023-03-31T00:40:16.572Z,98.8
2023-03-31T00:41:17.157Z,98.8
2023-03-31T00:42:16.974Z,98.8
2023-03-31T00:43:16.541Z,98.7
2023-03-31T00:44:17.208Z,98.7
2023-03-31T00:45:16.849Z,98.6
2023-03-31T00:46:17.584Z,98.5
2023-03-31T00:47:17.373Z,98.5
2023-03-31T00:48:16.932Z,98.4
2023-03-31T00:49:17.474Z,98.2
2023-03-31T00:50:17.030Z,98.1
2023-03-31T00:51:16.612Z,98.0
2023-03-31T00:52:17.076Z,98.1
2023-03-31T00:53:16.650Z,98.1
2023-03-31T00:54:17.233Z,98.1
2023-03-31T00:55:16.820Z,98.1
2023-03-31T00:56:17.422Z,98.0
2023-03-31T00:57:17.093Z,98.1
2023-03-31T00:58:16.670Z,98.0
2023-03-31T00:59:17.233Z,98.1
2023-03-31T01:00:16.822Z,98.1
2023-03-31T01:01:17.617Z,98.1
2023-03-31T01:02:17.181Z,98.1
2023-03-31T01:03:16.941Z,98.0
2023-03-31T01:04:17.518Z,98.0
2023-03-31T01:05:17.107Z,98.0
2023-03-31T01:06:16.655Z,97.9
2023-03-31T01:07:17.416Z,97.9
2023-03-31T01:08:16.987Z,97.9
2023-03-31T01:09:16.571Z,97.9
2023-03-31T01:10:17.142Z,97.8
2023-03-31T01:11:16.725Z,97.8
2023-03-31T01:12:16.597Z,97.7
2023-03-31T01:13:17.178Z,97.8
2023-03-31T01:14:16.790Z,97.8
2023-03-31T01:15:17.349Z,97.8
2023-03-31T01:16:17.002Z,97.8
2023-03-31T01:17:16.727Z,97.8
2023-03-31T01:18:17.522Z,97.7
2023-03-31T01:19:17.138Z,97.7
2023-03-31T01:20:16.691Z,97.6
2023-03-31T01:21:17.237Z,97.6
2023-03-31T01:22:17.108Z,97.6
2023-03-31T01:23:16.682Z,97.6
2023-03-31T01:24:17.292Z,97.6
2023-03-31T01:25:16.876Z,97.6
2023-03-31T01:26:17.413Z,97.5
2023-03-31T01:27:16.985Z,97.5
2023-03-31T01:28:16.591Z,97.4
2023-03-31T01:29:17.162Z,97.4
2023-03-31T01:30:16.745Z,97.4
2023-03-31T01:31:17.361Z,97.4
2023-03-31T01:32:17.116Z,97.4
2023-03-31T01:33:16.703Z,97.3
2023-03-31T01:34:17.238Z,97.3
2023-03-31T01:35:16.805Z,97.2
2023-03-31T01:36:17.477Z,97.1
2023-03-31T01:37:17.161Z,97.1
2023-03-31T01:38:16.838Z,97.0
2023-03-31T01:39:17.421Z,97.1
2023-03-31T01:40:17.037Z,97.1
2023-03-31T01:41:18.488Z,97.1
2023-03-31T01:42:16.686Z,97.2
2023-03-31T01:43:17.273Z,97.1
2023-03-31T01:44:16.837Z,97.1
2023-03-31T01:45:17.385Z,97.2
2023-03-31T01:46:16.947Z,97.1
2023-03-31T01:47:16.501Z,97.1
2023-03-31T01:48:17.036Z,97.1
2023-03-31T01:49:16.593Z,97.1
2023-03-31T01:50:17.165Z,97.0
2023-03-31T01:51:16.742Z,97.0
2023-03-31T01:52:16.776Z,97.1
2023-03-31T01:53:17.332Z,97.1
2023-03-31T01:54:16.892Z,97.0
2023-03-31T01:55:17.481Z,97.1
2023-03-31T01:56:17.009Z,97.1
2023-03-31T01:57:16.880Z,97.2
2023-03-31T01:58:17.507Z,97.1
2023-03-31T01:59:17.055Z,97.0
2023-03-31T02:00:16.630Z,97.1
2023-03-31T02:01:17.288Z,97.0
2023-03-31T02:02:17.103Z,97.0
2023-03-31T02:03:16.811Z,97.0
2023-03-31T02:04:17.495Z,97.0
2023-03-31T02:05:17.071Z,97.0
2023-03-31T02:06:16.652Z,97.1
2023-03-31T02:07:17.216Z,97.0
2023-03-31T02:08:16.820Z,97.0
2023-03-31T02:09:17.367Z,97.1
2023-03-31T02:10:16.969Z,97.1
2023-03-31T02:11:17.505Z,97.0
2023-03-31T02:12:16.616Z,97.0
2023-03-31T02:13:17.211Z,97.0
2023-03-31T02:14:16.795Z,97.0
2023-03-31T02:15:17.361Z,97.1
2023-03-31T02:16:17.024Z,97.1
2023-03-31T02:17:16.639Z,97.0
2023-03-31T02:18:17.179Z,97.0
2023-03-31T02:19:16.728Z,97.0
2023-03-31T02:20:17.321Z,96.9
2023-03-31T02:21:16.929Z,96.9
2023-03-31T02:22:16.806Z,96.9
2023-03-31T02:23:17.419Z,96.9
2023-03-31T02:24:17.000Z,96.9
2023-03-31T02:25:16.542Z,96.9
2023-03-31T02:26:17.116Z,96.9
2023-03-31T02:27:16.682Z,96.8
2023-03-31T02:28:17.224Z,96.9
2023-03-31T02:29:16.793Z,96.9
2023-03-31T02:30:17.370Z,96.8
2023-03-31T02:31:17.020Z,96.7
2023-03-31T02:32:17.075Z,96.7
2023-03-31T02:33:16.666Z,96.8
2023-03-31T02:34:17.323Z,96.8
2023-03-31T02:35:16.882Z,96.7
2023-03-31T02:36:17.620Z,96.6
2023-03-31T02:37:17.200Z,96.4
2023-03-31T02:38:16.755Z,96.4
2023-03-31T02:39:17.326Z,96.6
2023-03-31T02:40:16.882Z,96.5
2023-03-31T02:41:17.449Z,96.5
2023-03-31T02:42:17.399Z,96.3
2023-03-31T02:43:17.002Z,96.4
2023-03-31T02:44:16.565Z,96.3
2023-03-31T02:45:17.144Z,96.2
2023-03-31T02:46:16.927Z,96.3
2023-03-31T02:47:16.526Z,96.4
2023-03-31T02:48:17.069Z,96.3
2023-03-31T02:49:16.628Z,96.2
2023-03-31T02:50:17.172Z,96.2
2023-03-31T02:51:16.724Z,96.3
2023-03-31T02:52:17.341Z,96.3
2023-03-31T02:53:16.872Z,96.4
2023-03-31T02:54:17.393Z,96.5
2023-03-31T02:55:16.959Z,96.4
2023-03-31T02:56:17.536Z,96.4
2023-03-31T02:57:17.218Z,96.4
2023-03-31T02:58:16.839Z,96.3
2023-03-31T02:59:17.441Z,96.2
2023-03-31T03:00:16.993Z,96.2
2023-03-31T03:01:16.676Z,96.1
2023-03-31T03:02:16.686Z,96.2
2023-03-31T03:03:17.338Z,96.2
2023-03-31T03:04:16.913Z,96.1
2023-03-31T03:05:17.444Z,95.9
2023-03-31T03:06:16.982Z,95.9
2023-03-31T03:07:16.536Z,95.8
2023-03-31T03:08:17.081Z,95.7
2023-03-31T03:09:16.610Z,95.4
2023-03-31T03:10:17.206Z,95.4
2023-03-31T03:11:16.769Z,95.2
2023-03-31T03:12:16.756Z,95.3
2023-03-31T03:13:17.329Z,95.3
2023-03-31T03:14:16.884Z,95.4
2023-03-31T03:15:17.561Z,95.3
2023-03-31T03:16:17.190Z,95.3
2023-03-31T03:17:16.756Z,95.2
2023-03-31T03:18:17.321Z,95.3
2023-03-31T03:19:16.848Z,95.4
2023-03-31T03:20:17.409Z,95.4
2023-03-31T03:21:16.981Z,95.4
2023-03-31T03:22:16.924Z,95.6
2023-03-31T03:23:17.521Z,95.6
2023-03-31T03:24:17.067Z,95.6
2023-03-31T03:25:16.618Z,95.7
2023-03-31T03:26:17.167Z,95.8
2023-03-31T03:27:16.712Z,96.0
2023-03-31T03:28:17.266Z,96.1
2023-03-31T03:29:16.830Z,96.2
2023-03-31T03:30:17.394Z,96.2
2023-03-31T03:31:17.050Z,96.1
2023-03-31T03:32:17.440Z,96.2
2023-03-31T03:33:17.314Z,96.1
2023-03-31T03:34:16.956Z,96.1
2023-03-31T03:35:17.511Z,96.1
2023-03-31T03:36:17.168Z,96.1
2023-03-31T03:37:16.735Z,96.1
2023-03-31T03:38:17.332Z,96.1
2023-03-31T03:39:16.926Z,96.1
2023-03-31T03:40:17.484Z,96.0
2023-03-31T03:41:17.024Z,96.1
2023-03-31T03:42:17.521Z,96.1
2023-03-31T03:43:17.093Z,96.1
2023-03-31T03:44:16.641Z,96.1
2023-03-31T03:45:17.221Z,96.1
2023-03-31T03:46:16.878Z,96.1
2023-03-31T03:47:17.437Z,96.1
2023-03-31T03:48:16.956Z,96.0
2023-03-31T03:49:17.512Z,96.0
2023-03-31T03:50:17.082Z,96.0
2023-03-31T03:51:16.668Z,95.9
2023-03-31T03:52:17.449Z,95.9
2023-03-31T03:53:17.048Z,96.0
2023-03-31T03:54:16.600Z,95.8
2023-03-31T03:55:17.192Z,95.8
2023-03-31T03:56:16.780Z,95.8
2023-03-31T03:57:17.462Z,95.8
2023-03-31T03:58:17.065Z,95.7
2023-03-31T03:59:16.639Z,95.7
2023-03-31T04:00:17.229Z,95.7
2023-03-31T04:01:16.779Z,95.6
2023-03-31T04:02:16.845Z,95.6
2023-03-31T04:03:17.651Z,95.7
2023-03-31T04:04:17.219Z,95.4
2023-03-31T04:05:16.926Z,95.4
2023-03-31T04:06:17.483Z,95.5
2023-03-31T04:07:17.069Z,95.6
2023-03-31T04:08:16.626Z,95.7
2023-03-31T04:09:17.182Z,95.7
2023-03-31T04:10:16.805Z,95.7
2023-03-31T04:11:19.405Z,95.8
2023-03-31T04:12:17.095Z,95.9
2023-03-31T04:13:16.663Z,95.9
2023-03-31T04:14:17.240Z,95.9
2023-03-31T04:15:16.864Z,95.8
2023-03-31T04:16:17.526Z,95.9
2023-03-31T04:17:17.109Z,95.9
2023-03-31T04:18:16.685Z,96.1
2023-03-31T04:19:17.667Z,96.0
2023-03-31T04:20:17.327Z,96.1
2023-03-31T04:21:16.871Z,96.2
2023-03-31T04:22:16.949Z,96.2
2023-03-31T04:23:17.511Z,96.1
2023-03-31T04:24:17.044Z,96.1
2023-03-31T04:25:16.920Z,96.1
2023-03-31T04:26:17.533Z,96.1
2023-03-31T04:27:17.103Z,96.1
2023-03-31T04:28:16.666Z,96.1
2023-03-31T04:29:17.234Z,96.0
2023-03-31T04:30:16.798Z,96.1
2023-03-31T04:31:17.346Z,96.1
2023-03-31T04:32:17.009Z,96.0
2023-03-31T04:33:16.618Z,95.9
2023-03-31T04:34:17.168Z,95.9
2023-03-31T04:35:16.724Z,95.9
2023-03-31T04:36:17.256Z,95.9
2023-03-31T04:37:16.817Z,96.1
2023-03-31T04:38:17.401Z,96.2
2023-03-31T04:39:16.944Z,96.2
2023-03-31T04:40:17.558Z,96.2
2023-03-31T04:41:17.133Z,96.1
2023-03-31T04:42:16.997Z,96.3
2023-03-31T04:43:16.577Z,96.3
2023-03-31T04:44:17.163Z,96.4
2023-03-31T04:45:16.710Z,96.5
2023-03-31T04:46:17.457Z,96.5
2023-03-31T04:47:17.019Z,96.6
2023-03-31T04:48:16.567Z,96.5
2023-03-31T04:49:17.134Z,96.6
2023-03-31T04:50:17.495Z,96.6
2023-03-31T04:51:17.046Z,96.6
2023-03-31T04:52:17.329Z,96.8
2023-03-31T04:53:16.879Z,96.8
2023-03-31T04:54:17.484Z,96.8
2023-03-31T04:55:17.069Z,96.9
2023-03-31T04:56:16.632Z,96.9
2023-03-31T04:57:17.330Z,97.0
2023-03-31T04:58:16.952Z,97.0
2023-03-31T04:59:17.499Z,97.0
2023-03-31T05:00:17.113Z,97.0
2023-03-31T05:01:16.758Z,97.0
2023-03-31T05:02:16.951Z,96.9
2023-03-31T05:03:16.757Z,96.9
2023-03-31T05:04:17.397Z,96.8
2023-03-31T05:05:16.948Z,96.9
2023-03-31T05:06:17.522Z,96.9
2023-03-31T05:07:17.082Z,97.0
2023-03-31T05:08:16.640Z,96.9
2023-03-31T05:09:17.174Z,96.9
2023-03-31T05:10:16.783Z,96.9
2023-03-31T05:11:17.368Z,96.9
2023-03-31T05:12:17.072Z,96.9
2023-03-31T05:13:16.656Z,97.0
2023-03-31T05:14:17.225Z,97.1
2023-03-31T05:15:16.805Z,97.2
2023-03-31T05:16:17.575Z,97.2
2023-03-31T05:17:17.171Z,97.3
2023-03-31T05:18:16.732Z,97.3
2023-03-31T05:19:17.284Z,97.3
2023-03-31T05:20:16.862Z,97.3
2023-03-31T05:21:17.456Z,97.3
2023-03-31T05:22:17.407Z,97.2
2023-03-31T05:23:16.977Z,97.2
2023-03-31T05:24:16.545Z,97.2
2023-03-31T05:25:17.128Z,97.2
2023-03-31T05:26:16.769Z,97.2
2023-03-31T05:27:17.332Z,97.1
2023-03-31T05:28:16.878Z,97.1
2023-03-31T05:29:17.470Z,97.1
2023-03-31T05:30:17.016Z,97.0
2023-03-31T05:31:16.597Z,97.1
2023-03-31T05:32:17.439Z,97.1
2023-03-31T05:33:16.996Z,97.0
2023-03-31T05:34:16.600Z,97.0
2023-03-31T05:35:17.142Z,97.0
2023-03-31T05:36:16.877Z,97.0
2023-03-31T05:37:17.491Z,97.0
2023-03-31T05:38:17.064Z,97.0
2023-03-31T05:39:16.609Z,97.0
2023-03-31T05:40:17.153Z,97.1
2023-03-31T05:41:16.713Z,97.1
2023-03-31T05:42:16.798Z,97.0
2023-03-31T05:43:17.390Z,97.1
2023-03-31T05:44:16.936Z,97.1
2023-03-31T05:45:17.499Z,97.1
2023-03-31T05:46:17.078Z,97.1
2023-03-31T05:47:16.671Z,97.1
2023-03-31T05:48:17.202Z,97.1
2023-03-31T05:49:16.754Z,97.1
2023-03-31T05:50:17.301Z,97.1
2023-03-31T05:51:16.844Z,97.1
2023-03-31T05:52:17.062Z,97.1
2023-03-31T05:53:16.657Z,97.1
2023-03-31T05:54:17.232Z,97.2
2023-03-31T05:55:16.796Z,97.2
2023-03-31T05:56:17.350Z,97.3
2023-03-31T05:57:16.989Z,97.3
2023-03-31T05:58:16.617Z,97.2
2023-03-31T05:59:17.253Z,97.2
2023-03-31T06:00:16.843Z,97.2
2023-03-31T06:01:18.508Z,97.2
2023-03-31T06:02:17.202Z,97.2
2023-03-31T06:03:16.953Z,97.3
2023-03-31T06:04:16.692Z,97.2
2023-03-31T06:05:17.292Z,97.2
2023-03-31T06:06:16.867Z,97.1
2023-03-31T06:07:17.424Z,97.2
2023-03-31T06:08:17.012Z,97.2
2023-03-31T06:09:16.528Z,97.2
2023-03-31T06:10:17.060Z,97.3
2023-03-31T06:11:16.614Z,97.3
2023-03-31T06:12:17.280Z,97.3
2023-03-31T06:13:16.918Z,97.1
2023-03-31T06:14:17.496Z,97.1
2023-03-31T06:15:17.081Z,97.1
2023-03-31T06:16:16.716Z,97.0
2023-03-31T06:17:16.689Z,97.1
2023-03-31T06:18:17.222Z,97.1
2023-03-31T06:19:16.783Z,97.1
2023-03-31T06:20:28.624Z,97.0
2023-03-31T06:21:17.310Z,97.1
2023-03-31T06:22:17.340Z,97.1
2023-03-31T06:23:16.871Z,97.2
2023-03-31T06:24:17.426Z,97.1
2023-03-31T06:25:16.976Z,97.1
2023-03-31T06:26:16.549Z,97.1
2023-03-31T06:27:17.224Z,97.1
2023-03-31T06:28:16.778Z,97.1
2023-03-31T06:29:17.331Z,97.0
2023-03-31T06:30:16.882Z,97.1
2023-03-31T06:31:17.548Z,97.1
2023-03-31T06:32:17.376Z,97.1
2023-03-31T06:33:16.962Z,97.2
2023-03-31T06:34:20.813Z,97.3
2023-03-31T06:35:16.867Z,97.3
2023-03-31T06:36:17.704Z,97.3
2023-03-31T06:37:17.358Z,97.2
2023-03-31T06:38:16.970Z,97.2
2023-03-31T06:39:16.540Z,97.2
2023-03-31T06:40:17.111Z,97.3
2023-03-31T06:41:16.705Z,97.3
2023-03-31T06:42:16.795Z,97.3
2023-03-31T06:43:17.340Z,97.3
2023-03-31T06:44:16.923Z,97.3
2023-03-31T06:45:17.495Z,97.4
2023-03-31T06:46:17.252Z,97.5
2023-03-31T06:47:16.825Z,97.4
2023-03-31T06:48:17.405Z,97.4
2023-03-31T06:49:16.996Z,97.4
2023-03-31T06:50:16.581Z,97.4
2023-03-31T06:51:17.130Z,97.4
2023-03-31T06:52:16.763Z,97.4
2023-03-31T06:53:17.311Z,97.4
2023-03-31T06:54:16.845Z,97.5
2023-03-31T06:55:17.442Z,97.6
2023-03-31T06:56:17.023Z,97.6
2023-03-31T06:57:16.648Z,97.8
2023-03-31T06:58:17.276Z,97.8
2023-03-31T06:59:16.805Z,97.7
2023-03-31T07:00:17.355Z,97.8
2023-03-31T07:01:16.958Z,97.8
2023-03-31T07:02:17.347Z,97.7
2023-03-31T07:03:17.303Z,97.8
2023-03-31T07:04:16.997Z,97.8
2023-03-31T07:05:16.568Z,97.8
2023-03-31T07:06:17.104Z,97.8
2023-03-31T07:07:16.652Z,97.9
2023-03-31T07:08:17.193Z,97.8
2023-03-31T07:09:16.726Z,97.8
2023-03-31T07:10:17.300Z,97.8
2023-03-31T07:11:16.874Z,97.9
2023-03-31T07:12:16.579Z,97.9
2023-03-31T07:13:17.127Z,97.9
2023-03-31T07:14:17.059Z,97.8
2023-03-31T07:15:16.737Z,97.8
2023-03-31T07:16:17.407Z,97.7
2023-03-31T07:17:17.068Z,97.7
2023-03-31T07:18:16.640Z,97.7
2023-03-31T07:19:17.228Z,97.8
2023-03-31T07:20:16.798Z,98.1
2023-03-31T07:21:17.400Z,98.2
2023-03-31T07:22:17.069Z,98.2
2023-03-31T07:23:16.641Z,98.1
2023-03-31T07:24:17.174Z,98.1
2023-03-31T07:25:16.740Z,98.0
2023-03-31T07:26:17.331Z,98.0
2023-03-31T07:27:16.931Z,98.1
2023-03-31T07:28:17.510Z,98.2
2023-03-31T07:29:17.072Z,98.2
2023-03-31T07:30:16.664Z,98.1
2023-03-31T07:31:17.220Z,98.1
2023-03-31T07:32:17.244Z,98.1
2023-03-31T07:33:16.929Z,98.1
2023-03-31T07:34:17.537Z,98.1
2023-03-31T07:35:17.155Z,98.1
2023-03-31T07:36:17.427Z,98.1
2023-03-31T07:37:17.177Z,98.1
2023-03-31T07:38:16.775Z,98.1
2023-03-31T07:39:17.327Z,98.1
2023-03-31T07:40:16.912Z,98.1
2023-03-31T07:41:17.506Z,98.1
2023-03-31T07:42:17.155Z,98.0
2023-03-31T07:43:16.739Z,98.0
2023-03-31T07:44:17.283Z,98.1
2023-03-31T07:45:16.954Z,98.2
2023-03-31T07:46:17.649Z,98.1
2023-03-31T07:47:17.330Z,98.2
2023-03-31T07:48:16.933Z,98.2
2023-03-31T07:49:16.570Z,98.2
2023-03-31T07:50:17.121Z,98.3
2023-03-31T07:51:16.704Z,98.2
2023-03-31T07:52:16.698Z,98.2
2023-03-31T07:53:17.233Z,98.2
2023-03-31T07:54:16.797Z,98.3
2023-03-31T07:55:17.349Z,98.3
2023-03-31T07:56:16.979Z,98.3
2023-03-31T07:57:16.607Z,98.3
2023-03-31T07:58:17.188Z,98.3
2023-03-31T07:59:16.758Z,98.3
2023-03-31T08:00:17.504Z,98.4
2023-03-31T08:01:17.151Z,98.3
2023-03-31T08:02:17.098Z,98.3
2023-03-31T08:03:16.754Z,98.4
2023-03-31T08:04:17.449Z,98.5
2023-03-31T08:05:17.021Z,98.5
2023-03-31T08:06:16.541Z,98.5
2023-03-31T08:07:17.083Z,98.6
2023-03-31T08:08:16.586Z,98.8
2023-03-31T08:09:17.125Z,98.9
2023-03-31T08:10:16.735Z,98.9
2023-03-31T08:11:17.328Z,98.9
2023-03-31T08:12:17.262Z,98.9
2023-03-31T08:13:16.833Z,99.0
2023-03-31T08:14:38.263Z,99.0
2023-03-31T08:15:16.919Z,99.0
2023-03-31T08:16:17.507Z,99.0
2023-03-31T08:17:17.072Z,99.0
2023-03-31T08:18:16.671Z,99.1
2023-03-31T08:19:17.219Z,99.2
2023-03-31T08:20:16.905Z,99.1
2023-03-31T08:21:17.493Z,99.1
2023-03-31T08:22:16.721Z,99.2
2023-03-31T08:23:17.328Z,99.2
2023-03-31T08:24:16.931Z,99.3
2023-03-31T08:25:17.497Z,99.2
2023-03-31T08:26:18.289Z,99.2
2023-03-31T08:27:16.850Z,99.2
2023-03-31T08:28:17.420Z,99.3
2023-03-31T08:29:16.961Z,99.4
2023-03-31T08:30:17.536Z,99.5
2023-03-31T08:31:17.123Z,99.5
2023-03-31T08:32:17.151Z,99.5
2023-03-31T08:33:16.708Z,99.5
2023-03-31T08:34:17.262Z,99.6
2023-03-31T08:35:16.861Z,99.6
2023-03-31T08:36:17.583Z,99.5
2023-03-31T08:37:17.271Z,99.6
2023-03-31T08:38:16.833Z,99.6
2023-03-31T08:39:17.413Z,99.5
2023-03-31T08:40:16.979Z,99.5
2023-03-31T08:41:16.550Z,99.5
2023-03-31T08:42:17.286Z,99.5
2023-03-31T08:43:16.868Z,99.5
2023-03-31T08:44:17.404Z,99.4
2023-03-31T08:45:16.979Z,99.4
2023-03-31T08:46:16.604Z,99.3
2023-03-31T08:47:17.177Z,99.3
2023-03-31T08:48:16.949Z,99.2
2023-03-31T08:49:16.598Z,99.1
2023-03-31T08:50:17.189Z,99.0
2023-03-31T08:51:16.749Z,99.0
2023-03-31T08:52:17.295Z,99.0
2023-03-31T08:53:16.873Z,99.0
2023-03-31T08:54:17.449Z,98.7
2023-03-31T08:55:17.017Z,98.8
2023-03-31T08:56:16.557Z,98.8
2023-03-31T08:57:17.324Z,98.7
2023-03-31T08:58:16.869Z,98.7
2023-03-31T08:59:17.448Z,98.6
2023-03-31T09:00:16.980Z,98.6
2023-03-31T09:01:16.617Z,98.5
2023-03-31T09:02:17.689Z,98.5
2023-03-31T09:03:17.463Z,98.6
2023-03-31T09:04:17.402Z,98.7
2023-03-31T09:05:17.012Z,98.5
2023-03-31T09:06:17.040Z,98.4
2023-03-31T09:07:16.738Z,98.2
2023-03-31T09:08:17.289Z,98.2
2023-03-31T09:09:16.854Z,98.0
2023-03-31T09:10:17.398Z,98.1
2023-03-31T09:11:16.959Z,98.1
2023-03-31T09:12:16.572Z,97.6
2023-03-31T09:13:17.122Z,97.5
2023-03-31T09:14:16.679Z,97.4
2023-03-31T09:15:17.256Z,97.3
2023-03-31T09:16:17.280Z,97.3
2023-03-31T09:17:16.887Z,97.1
2023-03-31T09:18:17.469Z,97.0
2023-03-31T09:19:17.038Z,97.2
2023-03-31T09:20:16.601Z,97.2
2023-03-31T09:21:17.158Z,97.3
2023-03-31T09:22:17.048Z,97.3
2023-03-31T09:23:16.590Z,97.0
2023-03-31T09:24:17.232Z,96.7
2023-03-31T09:25:16.827Z,96.8
2023-03-31T09:26:17.407Z,96.5
2023-03-31T09:27:16.980Z,96.2
2023-03-31T09:28:16.539Z,96.3
2023-03-31T09:29:17.143Z,96.4
2023-03-31T09:30:16.777Z,96.5
2023-03-31T09:31:17.372Z,96.5
2023-03-31T09:32:16.602Z,96.5
2023-03-31T09:33:17.203Z,96.3
2023-03-31T09:34:16.764Z,95.9
2023-03-31T09:35:17.317Z,95.5
2023-03-31T09:36:16.986Z,95.6
2023-03-31T09:37:16.555Z,95.8
2023-03-31T09:38:17.123Z,96.4
2023-03-31T09:39:16.688Z,96.6
2023-03-31T09:40:17.257Z,96.6
2023-03-31T09:41:16.837Z,96.6
2023-03-31T09:42:16.628Z,96.0
2023-03-31T09:43:17.178Z,96.1
2023-03-31T09:44:16.718Z,96.3
2023-03-31T09:45:17.288Z,95.8
2023-03-31T09:46:17.696Z,95.7
2023-03-31T09:47:17.710Z,95.9
2023-03-31T09:48:17.334Z,94.9
2023-03-31T09:49:16.897Z,94.5
2023-03-31T09:50:17.440Z,94.4
2023-03-31T09:51:16.986Z,94.6
2023-03-31T09:52:17.172Z,94.8
2023-03-31T09:53:16.728Z,94.6
2023-03-31T09:54:17.276Z,94.8
2023-03-31T09:55:38.654Z,94.8
2023-03-31T09:56:17.431Z,94.3
2023-03-31T09:57:17.057Z,94.3
2023-03-31T09:58:16.627Z,94.1
2023-03-31T09:59:17.305Z,94.1
2023-03-31T10:00:17.261Z,93.3
2023-03-31T10:01:16.913Z,92.9
2023-03-31T10:02:16.984Z,92.6
2023-03-31T10:03:16.752Z,91.8
2023-03-31T10:04:17.435Z,92.3
2023-03-31T10:05:17.065Z,92.0
2023-03-31T10:06:16.620Z,92.1
2023-03-31T10:07:17.185Z,91.9
2023-03-31T10:08:16.755Z,91.0
2023-03-31T10:09:17.316Z,90.7
2023-03-31T10:10:16.885Z,90.5
2023-03-31T10:11:17.469Z,90.5
2023-03-31T10:12:17.444Z,90.8
2023-03-31T10:13:17.019Z,90.5
2023-03-31T10:14:16.641Z,90.1
2023-03-31T10:15:17.227Z,89.5
2023-03-31T10:16:16.860Z,90.0
2023-03-31T10:17:17.445Z,90.1
2023-03-31T10:18:17.095Z,89.8
2023-03-31T10:19:16.669Z,89.8
2023-03-31T10:20:17.200Z,88.1
2023-03-31T10:21:16.764Z,88.6
2023-03-31T10:22:16.558Z,88.7
2023-03-31T10:23:17.122Z,88.8
2023-03-31T10:24:16.660Z,87.8
2023-03-31T10:25:17.227Z,88.5
2023-03-31T10:26:16.774Z,88.1
2023-03-31T10:27:20.010Z,87.3
2023-03-31T10:28:16.658Z,87.6
2023-03-31T10:29:17.217Z,88.3
2023-03-31T10:30:16.789Z,88.1
2023-03-31T10:31:17.455Z,87.9
2023-03-31T10:32:17.568Z,87.8
2023-03-31T10:33:23.724Z,87.8
2023-03-31T10:34:17.544Z,88.1
2023-03-31T10:35:17.108Z,87.8
2023-03-31T10:36:16.673Z,87.3
2023-03-31T10:37:17.215Z,87.9
2023-03-31T10:38:16.785Z,86.9
2023-03-31T10:39:17.388Z,86.5
2023-03-31T10:40:17.113Z,87.1
2023-03-31T10:41:16.756Z,86.8
2023-03-31T10:42:17.474Z,86.2
2023-03-31T10:43:17.077Z,85.0
2023-03-31T10:44:16.652Z,85.4
2023-03-31T10:45:36.907Z,84.7
2023-03-31T10:46:16.900Z,84.5
2023-03-31T10:47:17.487Z,83.6
2023-03-31T10:48:17.114Z,83.1
2023-03-31T10:49:16.680Z,82.3
2023-03-31T10:50:17.353Z,81.5
2023-03-31T10:51:16.964Z,81.8
2023-03-31T10:52:17.266Z,80.5
2023-03-31T10:53:16.809Z,80.4
2023-03-31T10:54:17.416Z,80.5
2023-03-31T10:55:16.977Z,78.6
2023-03-31T10:56:16.573Z,78.3
2023-03-31T10:57:17.196Z,78.7
2023-03-31T10:58:16.764Z,77.9
2023-03-31T10:59:17.316Z,78.1
2023-03-31T11:00:17.000Z,78.2
2023-03-31T11:01:16.632Z,77.0
2023-03-31T11:02:17.249Z,76.6
2023-03-31T11:03:17.051Z,76.4
2023-03-31T11:04:16.761Z,76.3
2023-03-31T11:05:17.341Z,76.1
2023-03-31T11:06:16.897Z,76.6
2023-03-31T11:07:17.468Z,76.8
2023-03-31T11:08:19.924Z,77.6
2023-03-31T11:09:16.775Z,77.5
2023-03-31T11:10:17.550Z,77.4
2023-03-31T11:11:17.132Z,78.0
2023-03-31T11:12:17.406Z,76.3
2023-03-31T11:13:16.943Z,76.8
2023-03-31T11:14:17.518Z,76.4
2023-03-31T11:15:17.091Z,78.5
2023-03-31T11:16:16.931Z,78.9
2023-03-31T11:17:16.676Z,80.0
2023-03-31T11:18:17.359Z,81.9
2023-03-31T11:19:16.933Z,83.0
2023-03-31T11:20:17.579Z,81.6
2023-03-31T11:21:17.165Z,82.5
2023-03-31T11:22:17.125Z,82.9
2023-03-31T11:23:16.666Z,83.0
2023-03-31T11:24:17.219Z,82.9
2023-03-31T11:25:16.779Z,83.7
2023-03-31T11:26:17.323Z,85.0
2023-03-31T11:27:16.876Z,84.6
2023-03-31T11:28:17.415Z,84.9
2023-03-31T11:29:16.976Z,84.0
2023-03-31T11:30:16.653Z,83.8
2023-03-31T11:31:17.264Z,83.9
2023-03-31T11:32:17.260Z,84.0
2023-03-31T11:33:16.900Z,84.1
2023-03-31T11:34:17.476Z,84.0
2023-03-31T11:35:17.064Z,84.7
2023-03-31T11:36:16.644Z,84.6
2023-03-31T11:37:17.210Z,85.1
2023-03-31T11:38:16.840Z,85.1
2023-03-31T11:39:17.392Z,85.4
2023-03-31T11:40:16.933Z,85.7
2023-03-31T11:41:17.496Z,85.7
2023-03-31T11:42:17.127Z,85.4
2023-03-31T11:43:16.672Z,85.9
2023-03-31T11:44:17.244Z,86.6
2023-03-31T11:45:16.838Z,86.6
2023-03-31T11:46:17.452Z,86.5
2023-03-31T11:47:17.015Z,86.3
2023-03-31T11:48:16.747Z,86.1
2023-03-31T11:49:17.300Z,86.4
2023-03-31T11:50:16.896Z,86.5
2023-03-31T11:51:17.458Z,86.2
2023-03-31T11:52:16.623Z,86.6
2023-03-31T11:53:17.158Z,86.4
2023-03-31T11:54:16.752Z,86.0
2023-03-31T11:55:17.328Z,86.4
2023-03-31T11:56:16.899Z,86.3
2023-03-31T11:57:17.605Z,86.5
2023-03-31T11:58:17.212Z,86.5
2023-03-31T11:59:16.755Z,86.2
2023-03-31T12:00:17.338Z,86.4
2023-03-31T12:01:16.909Z,86.9
2023-03-31T12:02:16.969Z,87.1
2023-03-31T12:03:16.925Z,87.8
2023-03-31T12:04:16.749Z,87.8
2023-03-31T12:05:17.368Z,89.9
2023-03-31T12:06:17.107Z,90.5
2023-03-31T12:07:16.851Z,90.5
2023-03-31T12:08:17.451Z,90.1
2023-03-31T12:09:17.020Z,90.1
2023-03-31T12:10:16.622Z,90.1
2023-03-31T12:11:17.189Z,89.6
2023-03-31T12:12:16.701Z,89.5
2023-03-31T12:13:17.272Z,89.5
2023-03-31T12:14:16.850Z,89.8
2023-03-31T12:15:17.415Z,90.3
2023-03-31T12:16:17.020Z,90.7
2023-03-31T12:17:16.679Z,90.2
2023-03-31T12:18:17.253Z,90.2
2023-03-31T12:19:16.844Z,90.6
2023-03-31T12:20:17.387Z,90.7
2023-03-31T12:21:16.966Z,89.8
2023-03-31T12:22:17.288Z,89.1
2023-03-31T12:23:16.820Z,89.2
2023-03-31T12:24:17.382Z,88.8
2023-03-31T12:25:16.945Z,88.6
2023-03-31T12:26:17.498Z,89.2
2023-03-31T12:27:17.089Z,88.2
2023-03-31T12:28:16.665Z,88.2
2023-03-31T12:29:17.269Z,88.2
2023-03-31T12:30:16.842Z,87.9
2023-03-31T12:31:17.471Z,87.2
2023-03-31T12:32:17.104Z,87.5
2023-03-31T12:33:16.738Z,87.9
2023-03-31T12:34:17.285Z,87.5
2023-03-31T12:35:16.831Z,87.7
2023-03-31T12:36:17.598Z,88.2
2023-03-31T12:37:17.163Z,88.2
2023-03-31T12:38:16.712Z,87.8
2023-03-31T12:39:17.266Z,87.7
2023-03-31T12:40:16.840Z,88.0
2023-03-31T12:41:17.389Z,87.6
2023-03-31T12:42:16.669Z,87.6
2023-03-31T12:43:17.242Z,87.4
2023-03-31T12:44:16.806Z,86.9
2023-03-31T12:45:17.406Z,87.2
2023-03-31T12:46:17.056Z,86.4
2023-03-31T12:47:16.650Z,86.4
2023-03-31T12:48:17.197Z,86.2
2023-03-31T12:49:16.774Z,87.1
2023-03-31T12:50:17.322Z,87.4
2023-03-31T12:51:16.864Z,87.5
2023-03-31T12:52:16.648Z,87.2
2023-03-31T12:53:17.221Z,85.6
2023-03-31T12:54:16.761Z,87.2
2023-03-31T12:55:17.337Z,87.2
2023-03-31T12:56:16.895Z,87.4
2023-03-31T12:57:17.706Z,86.7
2023-03-31T12:58:17.298Z,86.6
2023-03-31T12:59:16.886Z,85.4
2023-03-31T13:00:17.541Z,85.8
2023-03-31T13:01:17.273Z,85.0
2023-03-31T13:02:17.174Z,85.3
2023-03-31T13:03:16.906Z,85.3
2023-03-31T13:04:17.726Z,86.6
2023-03-31T13:05:17.336Z,88.4
2023-03-31T13:06:17.006Z,90.5
2023-03-31T13:07:29.319Z,90.3
2023-03-31T13:08:17.082Z,89.9
2023-03-31T13:09:16.666Z,91.3
2023-03-31T13:10:17.380Z,92.0
2023-03-31T13:11:16.990Z,92.7
2023-03-31T13:12:16.864Z,93.5
2023-03-31T13:13:17.474Z,94.3
2023-03-31T13:14:17.212Z,94.1
2023-03-31T13:15:16.787Z,94.2
2023-03-31T13:16:17.465Z,94.4
2023-03-31T13:17:17.041Z,95.4
2023-03-31T13:18:16.818Z,95.5